Time;durP1;ratioP1;P1;durP2;ratioP2;P2;SDS_P1;SDS_P2;PMS_P1;PMS_P2;Temp;Humidity;BMP_temperature;BMP_pressure;BME280_temperature;BME280_humidity;BME280_pressure;Samples;Min_cycle;Max_cycle;Signal;HPM_P1;HPM_P2
2021/06/23 00:02:11;;;;;;;6.07;2.40;;;19.00;99.90;;;;;;5033608;28;20028;-82
2021/06/23 00:04:36;;;;;;;10.80;2.30;;;18.90;99.90;;;;;;5032271;28;20022;-82
2021/06/23 00:07:02;;;;;;;4.40;2.53;;;18.80;99.90;;;;;;5033537;28;20096;-81
2021/06/23 00:09:28;;;;;;;2.90;2.22;;;18.80;99.90;;;;;;5033439;28;20477;-81
2021/06/23 00:11:56;;;;;;;6.53;2.63;;;18.90;99.90;;;;;;5033739;28;20022;-81
2021/06/23 00:14:22;;;;;;;4.75;2.40;;;18.90;99.90;;;;;;5032158;28;20096;-81
2021/06/23 00:16:48;;;;;;;5.30;2.47;;;18.90;99.90;;;;;;5033446;28;20052;-81
2021/06/23 00:19:14;;;;;;;8.95;2.90;;;18.80;99.90;;;;;;5032139;28;20148;-81
2021/06/23 00:21:41;;;;;;;8.30;2.60;;;18.80;99.90;;;;;;5032111;28;20021;-82
2021/06/23 00:24:07;;;;;;;7.05;2.90;;;18.80;99.90;;;;;;5032044;28;20490;-81
2021/06/23 00:26:34;;;;;;;9.00;2.58;;;19.00;99.90;;;;;;5032048;28;20401;-81
2021/06/23 00:29:00;;;;;;;3.13;2.13;;;19.10;99.90;;;;;;5032069;28;20042;-81
2021/06/23 00:31:27;;;;;;;10.70;2.63;;;19.00;99.90;;;;;;5031832;28;20106;-81
2021/06/23 00:33:53;;;;;;;5.95;2.63;;;18.90;99.90;;;;;;5033392;28;20029;-81
2021/06/23 00:36:19;;;;;;;3.60;2.60;;;18.90;99.90;;;;;;5033010;28;20125;-81
2021/06/23 00:38:45;;;;;;;7.28;2.40;;;18.80;99.90;;;;;;5033452;28;20053;-81
2021/06/23 00:41:17;;;;;;;6.78;2.80;;;18.90;99.90;;;;;;5033420;28;20029;-81
2021/06/23 00:43:44;;;;;;;9.45;3.03;;;18.90;99.90;;;;;;5031885;28;20026;-81
2021/06/23 00:46:11;;;;;;;9.60;2.80;;;18.80;99.90;;;;;;5033048;28;20025;-81
2021/06/23 00:48:37;;;;;;;8.02;2.78;;;18.70;99.90;;;;;;5032058;28;20037;-82
2021/06/23 00:51:04;;;;;;;13.45;3.25;;;18.70;99.90;;;;;;5031704;28;20029;-81
2021/06/23 00:53:30;;;;;;;8.05;2.60;;;18.90;99.90;;;;;;5032928;28;20022;-81
2021/06/23 00:55:57;;;;;;;10.25;2.90;;;19.00;99.90;;;;;;5031710;28;20458;-81
2021/06/23 00:58:24;;;;;;;7.68;2.88;;;19.10;99.90;;;;;;5031719;28;20053;-81
2021/06/23 01:00:53;;;;;;;6.18;2.63;;;19.00;99.90;;;;;;5032937;28;20022;-82
2021/06/23 01:03:20;;;;;;;2.47;2.20;;;18.80;99.90;;;;;;5031587;28;20021;-81
2021/06/23 01:05:46;;;;;;;7.40;2.55;;;18.60;99.90;;;;;;5031624;28;20112;-81
2021/06/23 01:08:12;;;;;;;5.15;2.60;;;18.60;99.90;;;;;;5032878;28;20025;-81
2021/06/23 01:10:38;;;;;;;7.10;2.72;;;18.70;99.90;;;;;;5032751;28;20495;-81
2021/06/23 01:13:25;;;;;;;7.30;2.78;;;18.70;99.90;;;;;;5033109;28;20029;-82
2021/06/23 01:15:53;;;;;;;4.70;2.80;;;18.80;99.90;;;;;;5031658;28;20030;-82
2021/06/23 01:18:19;;;;;;;5.47;2.85;;;18.60;99.90;;;;;;5031525;28;20049;-81
2021/06/23 01:20:47;;;;;;;5.60;2.78;;;18.70;99.90;;;;;;5032841;28;20103;-81
2021/06/23 01:23:14;;;;;;;5.82;2.42;;;18.80;99.90;;;;;;5031478;28;20033;-82
2021/06/23 01:25:43;;;;;;;4.03;2.40;;;18.80;99.90;;;;;;5031484;28;20042;-82
2021/06/23 01:28:10;;;;;;;3.50;2.70;;;18.80;99.90;;;;;;5031417;28;20116;-81
2021/06/23 01:30:36;;;;;;;3.80;2.63;;;18.80;99.90;;;;;;5032583;28;20030;-81
2021/06/23 01:33:02;;;;;;;7.03;2.88;;;18.80;99.90;;;;;;5031371;28;20026;-81
2021/06/23 01:35:30;;;;;;;13.10;2.95;;;18.80;99.90;;;;;;5031129;28;20018;-81
2021/06/23 01:37:57;;;;;;;9.05;2.63;;;18.80;99.90;;;;;;5032939;28;20025;-80
2021/06/23 01:40:22;;;;;;;10.02;2.78;;;19.10;99.90;;;;;;5031256;28;20025;-80
2021/06/23 01:42:48;;;;;;;7.18;2.42;;;19.10;99.90;;;;;;5032775;28;20083;-80
2021/06/23 01:45:15;;;;;;;15.88;3.03;;;19.00;99.90;;;;;;5035061;28;20112;-80
2021/06/23 01:47:41;;;;;;;9.10;3.10;;;18.90;99.90;;;;;;5036316;28;20075;-80
2021/06/23 01:50:09;;;;;;;7.35;2.67;;;18.90;99.90;;;;;;5034682;28;20037;-80
2021/06/23 01:52:37;;;;;;;4.90;2.47;;;18.80;99.90;;;;;;5034651;28;20052;-80
2021/06/23 01:55:04;;;;;;;10.15;2.78;;;18.60;99.90;;;;;;5034676;28;20108;-80
2021/06/23 01:57:32;;;;;;;6.25;2.83;;;18.50;99.90;;;;;;5035814;28;20037;-80
2021/06/23 01:59:58;;;;;;;4.28;2.65;;;18.60;99.90;;;;;;5034571;28;20063;-80
2021/06/23 02:02:28;;;;;;;7.90;2.40;;;18.80;99.90;;;;;;5034479;28;20435;-80
2021/06/23 02:05:03;;;;;;;6.35;2.17;;;19.10;99.90;;;;;;5034392;28;20393;-80
2021/06/23 02:08:05;;;;;;;4.65;2.58;;;19.10;99.90;;;;;;5034372;28;20052;-80
2021/06/23 02:10:52;;;;;;;6.70;2.72;;;19.00;99.90;;;;;;5034291;28;20071;-80
2021/06/23 02:13:33;;;;;;;6.70;2.65;;;18.90;99.90;;;;;;5034267;28;20097;-80
2021/06/23 02:16:12;;;;;;;12.95;2.70;;;18.80;99.90;;;;;;5034271;28;20477;-80
2021/06/23 02:18:39;;;;;;;7.47;2.85;;;18.80;99.90;;;;;;5035793;28;20378;-80
2021/06/23 02:21:06;;;;;;;7.72;2.67;;;18.80;99.90;;;;;;5034204;28;20034;-80
2021/06/23 02:23:41;;;;;;;3.42;2.65;;;18.50;99.90;;;;;;5035394;28;20453;-80
2021/06/23 02:26:07;;;;;;;6.60;2.78;;;18.60;99.90;;;;;;5034079;28;20088;-80
2021/06/23 02:28:33;;;;;;;9.90;3.00;;;18.80;99.90;;;;;;5035766;28;20025;-80
2021/06/23 02:30:59;;;;;;;10.23;3.08;;;18.80;99.90;;;;;;5033855;28;20080;-80
2021/06/23 02:33:25;;;;;;;4.85;2.85;;;18.50;99.90;;;;;;5017306;28;20029;-80
2021/06/23 02:35:53;;;;;;;6.10;2.70;;;18.50;99.90;;;;;;5034806;28;20029;-80
2021/06/23 02:38:19;;;;;;;3.55;2.53;;;18.40;99.90;;;;;;5033816;28;20392;-80
2021/06/23 02:40:46;;;;;;;8.70;2.53;;;18.40;99.90;;;;;;5033796;28;20051;-80
2021/06/23 02:43:12;;;;;;;9.23;2.42;;;18.40;99.90;;;;;;5033690;28;20021;-80
2021/06/23 02:45:38;;;;;;;8.43;2.50;;;18.50;99.90;;;;;;5033722;28;20029;-80
2021/06/23 02:48:04;;;;;;;6.50;2.65;;;18.60;99.90;;;;;;5033694;28;20112;-80
2021/06/23 02:50:35;;;;;;;5.88;2.70;;;18.70;99.90;;;;;;5034774;28;20075;-80
2021/06/23 02:53:03;;;;;;;7.15;2.80;;;18.70;99.90;;;;;;5035175;28;20021;-80
2021/06/23 02:55:29;;;;;;;3.72;2.97;;;18.50;99.90;;;;;;5034241;28;20477;-80
2021/06/23 02:57:56;;;;;;;7.50;2.70;;;18.50;99.90;;;;;;5033463;28;20524;-80
2021/06/23 03:00:22;;;;;;;2.85;2.10;;;18.70;99.90;;;;;;5033384;28;20021;-80
2021/06/23 03:02:48;;;;;;;4.13;2.28;;;18.90;99.90;;;;;;5033434;28;20021;-81
2021/06/23 03:05:13;;;;;;;4.47;2.45;;;19.00;99.90;;;;;;5033286;28;20029;-80
2021/06/23 03:07:43;;;;;;;3.95;2.58;;;18.60;99.90;;;;;;5033313;28;20028;-80
2021/06/23 03:10:11;;;;;;;6.03;2.42;;;18.60;99.90;;;;;;5033183;28;20026;-80
2021/06/23 03:12:37;;;;;;;6.85;2.70;;;18.70;99.90;;;;;;5033141;28;20025;-80
2021/06/23 03:15:05;;;;;;;2.90;2.53;;;18.60;99.90;;;;;;5033218;28;20104;-80
2021/06/23 03:17:31;;;;;;;23.85;3.22;;;18.50;99.90;;;;;;5033319;28;20112;-80
2021/06/23 03:19:57;;;;;;;5.05;2.40;;;18.30;99.90;;;;;;5034365;28;20120;-82
2021/06/23 03:22:23;;;;;;;8.23;2.63;;;18.30;99.90;;;;;;5034267;28;20029;-82
2021/06/23 03:24:50;;;;;;;8.38;2.42;;;18.30;99.90;;;;;;5032977;28;20021;-81
2021/06/23 03:27:15;;;;;;;9.05;2.75;;;18.30;99.90;;;;;;5034191;28;20037;-82
2021/06/23 03:29:41;;;;;;;5.25;2.60;;;18.20;99.90;;;;;;5032835;28;20029;-81
2021/06/23 03:32:09;;;;;;;5.68;2.60;;;18.30;99.90;;;;;;5032858;28;20107;-81
2021/06/23 03:34:36;;;;;;;7.85;2.60;;;18.40;99.90;;;;;;5032776;28;20032;-82
2021/06/23 03:37:03;;;;;;;7.72;2.25;;;18.30;99.90;;;;;;5034021;28;20544;-82
2021/06/23 03:39:28;;;;;;;6.82;2.40;;;18.40;99.90;;;;;;5032750;28;20037;-81
2021/06/23 03:41:54;;;;;;;4.72;2.25;;;18.30;99.90;;;;;;5034201;28;20381;-82
2021/06/23 03:44:20;;;;;;;4.03;2.30;;;18.30;99.90;;;;;;5034223;28;20036;-82
2021/06/23 03:46:45;;;;;;;12.15;2.53;;;18.30;99.90;;;;;;5032552;28;20392;-82
2021/06/23 03:49:11;;;;;;;7.03;2.65;;;18.30;99.90;;;;;;5034337;28;20032;-81
2021/06/23 03:51:37;;;;;;;5.15;2.22;;;18.30;99.90;;;;;;5033807;28;20018;-81
2021/06/23 03:54:03;;;;;;;8.68;2.80;;;18.30;99.90;;;;;;5015973;28;20025;-82
2021/06/23 03:56:29;;;;;;;6.75;2.75;;;18.40;99.90;;;;;;5032633;28;20021;-81
2021/06/23 03:58:55;;;;;;;9.23;2.42;;;18.40;99.90;;;;;;5033614;28;20032;-81
2021/06/23 04:01:21;;;;;;;4.35;2.15;;;18.50;99.90;;;;;;5033561;28;20026;-81
2021/06/23 04:03:46;;;;;;;7.40;2.20;;;18.70;99.90;;;;;;5032267;28;20116;-81
2021/06/23 04:06:12;;;;;;;7.60;2.28;;;18.70;99.90;;;;;;5033124;28;20109;-81
2021/06/23 04:08:38;;;;;;;8.00;2.72;;;18.60;99.90;;;;;;5032189;28;20025;-81
2021/06/23 04:11:04;;;;;;;8.85;2.38;;;18.40;99.90;;;;;;5032128;28;20033;-82
2021/06/23 04:13:29;;;;;;;8.20;2.70;;;18.40;99.90;;;;;;5032153;28;20025;-81
2021/06/23 04:15:55;;;;;;;3.80;2.40;;;18.30;99.90;;;;;;5032095;28;20507;-81
2021/06/23 04:18:21;;;;;;;6.43;2.83;;;18.40;99.90;;;;;;5032106;28;20029;-81
2021/06/23 04:20:47;;;;;;;4.03;2.20;;;18.30;99.90;;;;;;5032349;28;20079;-81
2021/06/23 04:23:12;;;;;;;7.63;2.40;;;18.60;99.90;;;;;;5032087;28;20026;-81
2021/06/23 04:25:38;;;;;;;3.30;2.15;;;18.70;99.90;;;;;;5033338;28;20104;-81
2021/06/23 04:28:04;;;;;;;6.68;2.70;;;18.80;99.90;;;;;;5032040;28;20029;-81
2021/06/23 04:30:30;;;;;;;6.45;2.65;;;18.70;99.90;;;;;;5031881;28;20021;-81
2021/06/23 04:32:56;;;;;;;7.20;2.70;;;18.50;99.90;;;;;;5031988;28;20112;-82
2021/06/23 04:35:21;;;;;;;6.32;2.40;;;18.50;99.90;;;;;;5031718;28;20029;-81
2021/06/23 04:37:47;;;;;;;4.97;2.35;;;18.50;99.90;;;;;;5031909;28;20029;-81
2021/06/23 04:40:15;;;;;;;7.97;2.65;;;18.70;99.90;;;;;;5033207;28;20021;-81
2021/06/23 04:42:42;;;;;;;6.38;2.70;;;18.80;99.90;;;;;;5032365;28;20033;-81
2021/06/23 04:45:10;;;;;;;8.40;2.50;;;18.80;99.90;;;;;;5033124;28;20033;-82
2021/06/23 04:47:37;;;;;;;5.57;2.40;;;18.90;99.90;;;;;;5031846;28;20440;-81
2021/06/23 04:50:05;;;;;;;7.10;2.63;;;18.90;99.90;;;;;;5031764;28;20076;-81
2021/06/23 04:52:30;;;;;;;4.47;2.70;;;18.80;99.90;;;;;;5033598;28;20055;-81
2021/06/23 04:54:56;;;;;;;8.52;2.50;;;18.80;99.90;;;;;;5031782;28;20026;-82
2021/06/23 04:57:22;;;;;;;4.97;2.63;;;18.80;99.90;;;;;;5031714;28;20017;-81
2021/06/23 04:59:48;;;;;;;7.68;3.10;;;18.70;99.90;;;;;;5033093;28;20494;-81
2021/06/23 05:02:14;;;;;;;7.80;3.65;;;18.70;99.90;;;;;;5033268;28;20085;-82
2021/06/23 05:04:40;;;;;;;5.15;2.85;;;18.70;99.90;;;;;;5031786;28;20424;-81
2021/06/23 05:07:07;;;;;;;4.13;2.72;;;18.70;99.90;;;;;;5032919;28;20366;-81
2021/06/23 05:09:35;;;;;;;5.13;2.33;;;18.70;99.90;;;;;;5031552;28;20032;-81
2021/06/23 05:12:01;;;;;;;5.88;2.97;;;18.70;99.90;;;;;;5032902;28;20021;-82
2021/06/23 05:14:27;;;;;;;11.45;2.58;;;18.70;99.90;;;;;;5031660;28;20473;-82
2021/06/23 05:16:53;;;;;;;5.57;2.50;;;18.80;99.90;;;;;;5033016;28;20080;-82
2021/06/23 05:19:19;;;;;;;4.25;2.35;;;18.80;99.90;;;;;;5035371;28;20079;-81
2021/06/23 05:21:45;;;;;;;8.73;2.35;;;18.90;99.90;;;;;;5036588;28;20021;-82
2021/06/23 05:24:11;;;;;;;5.70;2.83;;;19.20;99.90;;;;;;5035278;28;20032;-81
2021/06/23 05:26:38;;;;;;;7.90;2.72;;;19.50;99.90;;;;;;5036782;28;20022;-81
2021/06/23 05:29:05;;;;;;;9.13;2.28;;;19.60;99.90;;;;;;5035229;28;20500;-81
2021/06/23 05:31:31;;;;;;;5.18;2.47;;;19.70;99.90;;;;;;5036419;28;20053;-81
2021/06/23 05:33:57;;;;;;;2.67;1.92;;;19.90;99.90;;;;;;5036551;28;20037;-81
2021/06/23 05:36:23;;;;;;;6.72;2.45;;;19.80;99.90;;;;;;5034836;28;20045;-81
2021/06/23 05:38:48;;;;;;;3.13;1.83;;;19.80;99.90;;;;;;5035120;28;20025;-81
2021/06/23 05:41:14;;;;;;;5.40;2.30;;;19.80;99.90;;;;;;5034957;28;20030;-81
2021/06/23 05:43:40;;;;;;;3.60;2.13;;;19.80;99.90;;;;;;5036198;28;20025;-81
2021/06/23 05:46:06;;;;;;;7.85;2.50;;;19.70;99.90;;;;;;5034874;28;20029;-81
2021/06/23 05:48:32;;;;;;;5.55;1.88;;;19.70;99.90;;;;;;5036151;28;20021;-81
2021/06/23 05:50:57;;;;;;;4.40;2.42;;;19.70;99.90;;;;;;5034695;28;20030;-81
2021/06/23 05:53:23;;;;;;;3.25;2.40;;;19.70;99.90;;;;;;5036018;28;20048;-81
2021/06/23 05:55:49;;;;;;;3.92;2.13;;;19.90;99.90;;;;;;5034704;28;20436;-81
2021/06/23 05:58:15;;;;;;;5.82;2.00;;;20.00;99.90;;;;;;5036080;28;20029;-81
2021/06/23 06:00:40;;;;;;;6.97;2.55;;;20.00;99.90;;;;;;5034645;28;20401;-81
2021/06/23 06:03:07;;;;;;;4.03;2.65;;;20.00;99.90;;;;;;5034543;28;20021;-81
2021/06/23 06:05:33;;;;;;;4.25;2.50;;;20.00;99.90;;;;;;5035826;28;20030;-81
2021/06/23 06:07:59;;;;;;;3.80;2.08;;;19.90;99.90;;;;;;5034490;28;20037;-81
2021/06/23 06:10:27;;;;;;;7.05;2.70;;;19.90;99.90;;;;;;5034356;28;20489;-81
2021/06/23 06:12:52;;;;;;;7.82;3.38;;;19.90;99.90;;;;;;5034433;28;20081;-81
2021/06/23 06:15:18;;;;;;;3.97;2.22;;;19.90;99.90;;;;;;5035885;28;20034;-81
2021/06/23 06:17:44;;;;;;;6.75;2.60;;;19.90;99.90;;;;;;5034271;28;20026;-81
2021/06/23 06:20:11;;;;;;;2.83;2.50;;;20.00;99.90;;;;;;5034131;28;20397;-81
2021/06/23 06:22:37;;;;;;;4.18;2.78;;;20.00;99.90;;;;;;5034217;28;20029;-81
2021/06/23 06:25:04;;;;;;;5.65;2.60;;;20.10;99.90;;;;;;5035608;28;20428;-81
2021/06/23 06:27:29;;;;;;;5.45;2.55;;;20.30;99.90;;;;;;5034056;28;20029;-81
2021/06/23 06:29:55;;;;;;;7.65;2.67;;;20.40;99.90;;;;;;5033617;28;20031;-81
2021/06/23 06:32:21;;;;;;;5.70;2.90;;;20.40;99.90;;;;;;5033974;28;20021;-82
2021/06/23 06:34:46;;;;;;;5.63;2.92;;;20.30;99.90;;;;;;5035262;28;20449;-81
2021/06/23 06:37:12;;;;;;;3.13;1.98;;;20.20;99.90;;;;;;5035079;28;20159;-81
2021/06/23 06:39:38;;;;;;;5.90;2.70;;;20.30;99.90;;;;;;5034133;28;20026;-81
2021/06/23 06:42:05;;;;;;;4.55;2.40;;;20.60;99.90;;;;;;5035048;28;20026;-81
2021/06/23 06:44:32;;;;;;;6.78;2.60;;;20.80;99.90;;;;;;5033708;28;20022;-81
2021/06/23 06:46:58;;;;;;;3.38;2.00;;;20.90;99.90;;;;;;5033725;28;20029;-79
2021/06/23 06:49:28;;;;;;;4.95;2.90;;;20.90;99.90;;;;;;5035216;28;20025;-79
2021/06/23 06:51:58;;;;;;;2.58;2.15;;;20.80;99.90;;;;;;5035226;28;20021;-79
2021/06/23 06:54:28;;;;;;;3.63;2.22;;;20.80;99.90;;;;;;5033587;28;20028;-79
2021/06/23 06:56:55;;;;;;;3.15;1.98;;;20.90;99.90;;;;;;5034862;28;20100;-79
2021/06/23 06:59:21;;;;;;;3.50;2.10;;;21.00;99.90;;;;;;5033558;28;20067;-80
2021/06/23 07:01:48;;;;;;;3.00;2.08;;;21.10;99.90;;;;;;5034601;28;20104;-79
2021/06/23 07:04:15;;;;;;;3.45;2.00;;;21.10;99.90;;;;;;5034690;28;20096;-80
2021/06/23 07:06:41;;;;;;;6.93;1.58;;;21.20;99.90;;;;;;5033419;28;20108;-80
2021/06/23 07:09:07;;;;;;;2.20;1.30;;;21.50;99.90;;;;;;5033267;28;20029;-80
2021/06/23 07:11:33;;;;;;;5.93;1.50;;;21.40;99.90;;;;;;5034440;28;20068;-79
2021/06/23 07:13:59;;;;;;;3.53;1.27;;;21.40;99.90;;;;;;5033266;28;20374;-79
2021/06/23 07:16:24;;;;;;;3.33;1.50;;;21.30;99.90;;;;;;5033221;28;20414;-79
2021/06/23 07:18:50;;;;;;;4.13;1.30;;;21.10;99.90;;;;;;5033179;28;20036;-80
2021/06/23 07:21:19;;;;;;;3.25;1.17;;;21.10;99.90;;;;;;5034656;28;20101;-79
2021/06/23 07:23:47;;;;;;;2.05;1.00;;;21.20;99.90;;;;;;5034597;28;20033;-79
2021/06/23 07:26:13;;;;;;;3.72;1.50;;;21.20;99.90;;;;;;5032852;28;20034;-79
2021/06/23 07:28:48;;;;;;;2.58;1.10;;;21.20;99.90;;;;;;5034272;28;20045;-79
2021/06/23 07:31:18;;;;;;;2.50;1.55;;;21.10;99.90;;;;;;5032925;28;20029;-79
2021/06/23 07:33:52;;;;;;;6.32;1.10;;;21.10;99.90;;;;;;5032755;28;20021;-80
2021/06/23 07:36:42;;;;;;;4.38;1.40;;;21.10;99.90;;;;;;5034116;28;20041;-79
2021/06/23 07:39:08;;;;;;;3.15;1.30;;;21.20;99.90;;;;;;5033491;28;20034;-79
2021/06/23 07:41:45;;;;;;;3.30;1.30;;;21.10;99.90;;;;;;5032095;28;20029;-79
2021/06/23 07:44:13;;;;;;;4.30;1.20;;;21.00;99.90;;;;;;5032737;28;20448;-80
2021/06/23 07:47:03;;;;;;;1.15;0.95;;;21.00;99.90;;;;;;5033932;28;20021;-80
2021/06/23 07:49:27;;;;;;;4.15;1.13;;;20.90;99.90;;;;;;5033462;28;20389;-80
2021/06/23 08:10:28;;;;;;;4.55;1.00;;;20.90;99.90;;;;;;5033796;28;20032;-80
2021/06/23 08:12:58;;;;;;;2.30;0.90;;;21.00;99.90;;;;;;5032210;28;20021;-80
2021/06/23 08:15:28;;;;;;;1.80;0.80;;;21.00;99.90;;;;;;5033490;28;20017;-80
2021/06/23 08:17:55;;;;;;;5.20;1.00;;;20.90;99.90;;;;;;5032142;28;20043;-80
2021/06/23 08:20:21;;;;;;;2.22;1.00;;;20.80;99.90;;;;;;5033366;28;20033;-80
2021/06/23 08:22:47;;;;;;;2.92;0.98;;;20.80;99.90;;;;;;5033643;28;20030;-80
2021/06/23 08:25:13;;;;;;;2.78;1.00;;;20.90;99.90;;;;;;5033345;28;20425;-80
2021/06/23 08:27:40;;;;;;;2.70;0.90;;;21.00;99.90;;;;;;5032322;28;20503;-80
2021/06/23 08:30:07;;;;;;;1.23;1.00;;;21.30;99.90;;;;;;5031938;28;20025;-79
2021/06/23 08:32:33;;;;;;;3.33;1.00;;;21.60;99.90;;;;;;5031857;28;20025;-80
2021/06/23 08:34:59;;;;;;;2.35;0.90;;;21.80;99.90;;;;;;5031681;28;20024;-79
2021/06/23 08:37:25;;;;;;;2.45;1.13;;;22.00;99.90;;;;;;5031837;28;20052;-80
2021/06/23 08:39:51;;;;;;;3.97;1.42;;;22.30;99.90;;;;;;5031910;28;20080;-80
2021/06/23 08:42:24;;;;;;;4.13;1.02;;;22.50;99.90;;;;;;5031808;28;20381;-80
2021/06/23 08:44:51;;;;;;;1.10;1.00;;;22.70;99.90;;;;;;5031956;28;20052;-79
2021/06/23 08:47:17;;;;;;;2.33;0.93;;;22.70;99.90;;;;;;5031840;28;20029;-79
2021/06/23 08:49:47;;;;;;;1.40;0.90;;;22.90;99.90;;;;;;5033002;28;20029;-80
2021/06/23 08:52:13;;;;;;;1.83;1.00;;;22.90;99.90;;;;;;5034240;28;20076;-79
2021/06/23 08:54:42;;;;;;;2.40;1.20;;;23.00;99.90;;;;;;5037168;28;20491;-80
2021/06/23 08:57:09;;;;;;;1.52;0.68;;;22.80;99.90;;;;;;5035770;28;20021;-80
2021/06/23 08:59:35;;;;;;;1.63;0.90;;;22.90;99.90;;;;;;5035817;28;20486;-79
2021/06/23 09:02:01;;;;;;;2.10;1.05;;;23.10;99.90;;;;;;5035725;28;20026;-80
2021/06/23 09:04:28;;;;;;;4.05;0.93;;;23.30;99.90;;;;;;5035654;28;20508;-80
2021/06/23 09:06:58;;;;;;;2.00;0.95;;;23.30;99.90;;;;;;5036769;28;20035;-80
2021/06/23 09:09:35;;;;;;;5.53;1.00;;;23.50;99.90;;;;;;5035491;28;20495;-80
2021/06/23 09:12:07;;;;;;;5.32;1.02;;;23.60;99.90;;;;;;5036803;28;20362;-80
2021/06/23 09:14:38;;;;;;;3.83;1.27;;;23.90;99.90;;;;;;5035473;28;20112;-81
2021/06/23 09:17:09;;;;;;;4.78;1.20;;;24.10;99.90;;;;;;5035469;28;20366;-80
2021/06/23 09:19:54;;;;;;;6.18;1.13;;;24.20;99.90;;;;;;5035407;28;20096;-81
2021/06/23 09:22:31;;;;;;;;;;;24.30;99.90;;;;;;5037380;28;20030;-81
2021/06/23 09:24:58;;;;;;;3.50;1.17;;;24.20;99.90;;;;;;5036591;28;19905;-81
2021/06/23 09:27:27;;;;;;;3.08;0.70;;;24.20;99.90;;;;;;5036551;28;20517;-80
2021/06/23 09:29:53;;;;;;;3.05;1.20;;;24.30;99.90;;;;;;5035199;28;20505;-80
2021/06/23 09:32:20;;;;;;;4.90;1.20;;;24.70;99.90;;;;;;5035418;28;20022;-80
2021/06/23 09:34:49;;;;;;;1.90;1.10;;;24.90;99.90;;;;;;5035115;28;20449;-80
2021/06/23 09:37:25;;;;;;;5.72;0.93;;;25.00;99.90;;;;;;5036317;28;20069;-81
2021/06/23 09:40:08;;;;;;;4.95;0.90;;;25.20;99.90;;;;;;5035076;28;20485;-81
2021/06/23 09:42:38;;;;;;;3.58;1.02;;;24.80;99.90;;;;;;5036325;28;20469;-81
2021/06/23 09:45:09;;;;;;;2.38;0.88;;;24.70;99.90;;;;;;5036292;28;20079;-81
2021/06/23 09:47:36;;;;;;;3.03;0.90;;;24.60;99.90;;;;;;5034891;28;20030;-81
2021/06/23 09:50:05;;;;;;;1.08;0.82;;;25.00;99.90;;;;;;5034822;28;20040;-81
2021/06/23 09:52:32;;;;;;;1.90;0.90;;;25.30;99.90;;;;;;5036383;28;20493;-80
2021/06/23 09:55:00;;;;;;;4.75;0.80;;;25.50;99.90;;;;;;5034819;28;20034;-81
2021/06/23 09:57:26;;;;;;;2.63;1.02;;;25.40;99.90;;;;;;5035988;28;20404;-80
2021/06/23 09:59:58;;;;;;;3.30;1.10;;;25.80;99.90;;;;;;5034676;28;20033;-81
2021/06/23 10:02:30;;;;;;;1.40;0.82;;;25.90;99.90;;;;;;5034586;28;20021;-81
2021/06/23 10:05:00;;;;;;;3.45;1.20;;;25.90;99.90;;;;;;5034201;28;20485;-80
2021/06/23 10:07:41;;;;;;;2.78;1.17;;;26.00;99.90;;;;;;5035853;28;20032;-81
2021/06/23 10:10:09;;;;;;;2.53;0.93;;;26.30;99.90;;;;;;5034457;28;20420;-80
2021/06/23 10:12:41;;;;;;;4.07;0.90;;;26.70;99.90;;;;;;5035708;28;20026;-81
2021/06/23 10:15:07;;;;;;;3.88;0.80;;;27.10;99.90;;;;;;5034397;28;20025;-80
2021/06/23 10:17:33;;;;;;;4.78;1.00;;;27.10;99.90;;;;;;5035594;28;20101;-80
2021/06/23 10:20:02;;;;;;;1.75;1.00;;;27.20;99.90;;;;;;5034285;28;20481;-81
2021/06/23 10:22:28;;;;;;;3.40;1.00;;;26.50;99.90;;;;;;5035510;28;20136;-80
2021/06/23 10:24:55;;;;;;;2.10;1.00;;;26.00;99.90;;;;;;5035475;28;20061;-80
2021/06/23 10:27:22;;;;;;;2.63;1.25;;;25.60;99.90;;;;;;5035808;28;20033;-80
2021/06/23 10:29:52;;;;;;;1.50;0.90;;;25.90;99.90;;;;;;5034880;28;20031;-80
2021/06/23 10:32:19;;;;;;;2.55;1.10;;;25.50;99.90;;;;;;5035936;28;20583;-80
2021/06/23 10:34:45;;;;;;;1.98;1.00;;;25.90;99.90;;;;;;5033902;28;20121;-81
2021/06/23 10:37:12;;;;;;;2.13;1.13;;;25.70;99.90;;;;;;5035120;28;20116;-79
2021/06/23 10:39:38;;;;;;;4.35;1.13;;;26.20;99.90;;;;;;5033983;28;20038;-80
2021/06/23 10:42:08;;;;;;;3.15;1.10;;;26.60;99.90;;;;;;5033920;28;20531;-80
2021/06/23 10:44:47;;;;;;;2.50;0.88;;;27.00;99.90;;;;;;5033897;28;20025;-80
2021/06/23 10:47:34;;;;;;;5.13;0.80;;;27.00;99.90;;;;;;5035607;28;20030;-80
2021/06/23 10:50:01;;;;;;;3.42;0.98;;;27.50;99.90;;;;;;5034948;28;20587;-80
2021/06/23 10:52:30;;;;;;;7.50;1.00;;;27.80;99.90;;;;;;5034960;28;20082;-80
2021/06/23 10:55:20;;;;;;;1.83;1.02;;;27.20;99.90;;;;;;5034868;28;20022;-79
2021/06/23 10:57:48;;;;;;;5.60;1.20;;;26.30;99.90;;;;;;5033581;28;20400;-80
2021/06/23 11:00:21;;;;;;;8.02;1.35;;;25.50;99.90;;;;;;5034806;28;20560;-80
2021/06/23 11:02:49;;;;;;;4.22;1.20;;;25.70;99.90;;;;;;5033490;28;20053;-80
2021/06/23 11:05:17;;;;;;;1.83;1.00;;;25.60;99.90;;;;;;5034742;28;20083;-80
2021/06/23 11:07:48;;;;;;;3.50;1.13;;;26.70;99.90;;;;;;5033423;28;20485;-80
2021/06/23 11:10:16;;;;;;;2.88;0.80;;;26.90;99.90;;;;;;5033505;28;20037;-80
2021/06/23 11:12:58;;;;;;;2.35;0.82;;;27.30;99.90;;;;;;5033304;28;20435;-80
2021/06/23 11:15:36;;;;;;;1.52;0.80;;;28.40;99.90;;;;;;5032298;28;20074;-80
2021/06/23 11:18:24;;;;;;;1.30;0.68;;;28.60;99.90;;;;;;5033232;28;20473;-80
2021/06/23 11:21:00;;;;;;;5.63;0.88;;;28.70;99.90;;;;;;5033080;28;20029;-80
2021/06/23 11:23:51;;;;;;;2.58;0.70;;;29.00;99.90;;;;;;5034616;28;20033;-80
2021/06/23 11:26:22;;;;;;;6.03;1.00;;;29.40;99.90;;;;;;5034551;28;20036;-80
2021/06/23 11:29:08;;;;;;;1.98;0.68;;;29.70;99.90;;;;;;5032957;28;20026;-80
2021/06/23 11:31:44;;;;;;;3.03;0.73;;;29.40;99.90;;;;;;5034372;28;20026;-80
2021/06/23 11:34:11;;;;;;;2.88;0.68;;;28.10;99.90;;;;;;5034039;28;20385;-80
2021/06/23 11:36:46;;;;;;;1.67;0.77;;;27.40;99.90;;;;;;5111550;27;20459;-79
2021/06/23 11:39:20;;;;;;;0.90;0.60;;;26.70;99.90;;;;;;5072602;28;20127;-79
2021/06/23 11:41:46;;;;;;;2.08;0.60;;;27.30;99.90;;;;;;5072329;28;20035;-79
2021/06/23 11:44:11;;;;;;;1.38;0.70;;;27.10;99.90;;;;;;5072418;28;20024;-79
2021/06/23 11:46:37;;;;;;;2.20;0.70;;;28.10;99.90;;;;;;5090662;28;20058;-80
2021/06/23 11:49:02;;;;;;;1.83;0.70;;;28.30;99.90;;;;;;5072518;28;20103;-79
2021/06/23 11:51:28;;;;;;;2.15;0.60;;;28.80;99.90;;;;;;5072432;28;20032;-79
2021/06/23 11:53:54;;;;;;;1.75;0.75;;;29.20;99.90;;;;;;5090601;28;20087;-80
2021/06/23 11:56:19;;;;;;;2.15;0.70;;;29.40;99.90;;;;;;5072276;28;20531;-79
2021/06/23 11:58:45;;;;;;;2.25;0.60;;;29.40;99.90;;;;;;5072554;28;20031;-79
2021/06/23 12:01:11;;;;;;;2.30;0.40;;;30.10;99.90;;;;;;5090379;28;20051;-79
2021/06/23 12:03:37;;;;;;;1.25;0.52;;;29.20;99.90;;;;;;5072163;28;20150;-80
2021/06/23 12:06:04;;;;;;;0.70;0.50;;;27.90;99.90;;;;;;5090284;28;20032;-81
2021/06/23 12:08:30;;;;;;;1.08;0.32;;;27.60;99.90;;;;;;5072092;28;20035;-79
2021/06/23 12:10:56;;;;;;;0.70;0.40;;;27.00;99.90;;;;;;5090186;28;20036;-79
2021/06/23 12:13:22;;;;;;;1.02;0.43;;;26.40;99.90;;;;;;5091438;28;20118;-80
2021/06/23 12:15:48;;;;;;;2.58;0.40;;;26.30;99.90;;;;;;5073282;28;20364;-79
2021/06/23 12:18:14;;;;;;;2.47;0.50;;;26.50;99.90;;;;;;5090089;28;20021;-79
2021/06/23 12:20:41;;;;;;;1.58;0.70;;;26.40;99.90;;;;;;5071893;28;20024;-80
2021/06/23 12:23:09;;;;;;;1.00;0.60;;;26.20;99.90;;;;;;5089988;28;20361;-80
2021/06/23 12:25:47;;;;;;;3.92;0.70;;;25.80;99.90;;;;;;5071780;28;20111;-79
2021/06/23 12:28:14;;;;;;;3.58;1.48;;;25.60;99.90;;;;;;5071765;28;20074;-79
2021/06/23 12:30:41;;;;;;;2.47;1.30;;;25.40;99.90;;;;;;5089859;28;20024;-79
2021/06/23 12:33:10;;;;;;;3.85;1.10;;;25.00;99.90;;;;;;5071766;28;20085;-80
2021/06/23 12:35:45;;;;;;;4.40;1.08;;;24.90;99.90;;;;;;5061647;28;20090;-81
2021/06/23 12:38:16;;;;;;;4.68;0.77;;;24.80;99.90;;;;;;5049549;28;20028;-79
2021/06/23 12:40:44;;;;;;;6.60;0.85;;;25.30;99.90;;;;;;5031774;28;20048;-79
2021/06/23 12:43:10;;;;;;;0.90;0.65;;;25.00;99.90;;;;;;5031665;28;20030;-81
2021/06/23 12:45:40;;;;;;;4.25;0.60;;;25.00;99.90;;;;;;5032053;28;20037;-81
2021/06/23 12:48:07;;;;;;;2.88;0.70;;;25.20;99.90;;;;;;5036143;28;20052;-81
2021/06/23 12:50:36;;;;;;;1.13;0.50;;;26.20;99.90;;;;;;5020838;28;20041;-81
2021/06/23 12:53:03;;;;;;;1.98;0.70;;;26.60;99.90;;;;;;5019244;28;20033;-83
2021/06/23 12:55:28;;;;;;;0.80;0.50;;;27.80;99.90;;;;;;5018327;28;20573;-82
2021/06/23 12:57:55;;;;;;;1.92;0.60;;;28.80;99.90;;;;;;5020384;28;20053;-84
2021/06/23 13:00:22;;;;;;;1.88;0.90;;;28.30;99.90;;;;;;5021108;28;20021;-83
2021/06/23 13:02:49;;;;;;;1.95;0.50;;;28.40;99.70;;;;;;5021210;28;20104;-83
2021/06/23 13:05:16;;;;;;;2.33;0.70;;;28.10;99.90;;;;;;5020184;28;20037;-83
2021/06/23 13:07:44;;;;;;;2.25;0.50;;;28.60;99.90;;;;;;5037949;28;20079;-83
2021/06/23 13:10:11;;;;;;;5.00;0.80;;;29.00;99.30;;;;;;5020034;28;20029;-84